Hauptseite
METAR-TAF:

METAR-TAF

Flughäfen :

Vannes, Frankreich

Flughafen Vannes

Breite: 47-43-19N, Länge: 2-43-41W, Höhe: 130 m

Beobachtung

Neuester Wetterbericht von vor 39 Minuten, um 14:30 UTC
Wind 7 kt aus West, variierte zwischen Südwest und West/Nordwest
Temperatur 8°C
Luftfeuchtigkeit 76%
Luftdruck 1016 hPa
Sichtweite 10 km oder mehr
keine Wolken unter 1500 m und keine Kumulonimbus oder Gewitterwolken

METAR: LFRV 191430Z AUTO 27007KT 230V300 CAVOK 08/04 Q1016

Zeit: 16:09 (15:09 UTC)


TAF: fehlend

Wetterbeobachtungen und Prognosen von mehr als 4000 Flughäfen (METAR und TAF Bericht).

Die verfügbaren Stationen werden durch gelbe und rote Markierungen auf der Karte dargestellt.

Führen Sie die Maus auf sie, um den Namen der Station zu sehen.

Darauf klicken, um die Beobachtung von Wetterbeobachtungen und Prognosen zu sehen.

Um die Karte zu ändern : klicken Sie auf den grünen Tasten mit einem schwarzen Kreuz Zum Vergrößern, auf den grünen Button mit einem Gedankenstrich zu verkleinern, oder auf die grünen Pfeile für benachbarte Karten.


METAR-TAF: